createdAt,value
2022-10-18T00:00:28.570Z,13.87
2022-10-18T00:03:34.724Z,13.84
2022-10-18T00:06:42.614Z,13.82
2022-10-18T00:09:48.060Z,13.79
2022-10-18T00:12:53.563Z,13.77
2022-10-18T00:20:41.664Z,13.74
2022-10-18T00:23:51.949Z,13.73
2022-10-18T00:27:14.691Z,13.76
2022-10-18T00:30:24.045Z,13.75
2022-10-18T00:33:46.043Z,13.75
2022-10-18T00:37:00.907Z,13.75
2022-10-18T00:40:12.423Z,13.76
2022-10-18T00:43:25.024Z,13.77
2022-10-18T00:46:49.221Z,13.77
2022-10-18T00:50:05.596Z,13.78
2022-10-18T00:53:33.879Z,13.79
2022-10-18T00:56:53.289Z,13.81
2022-10-18T01:00:11.114Z,13.80
2022-10-18T01:03:22.693Z,13.81
2022-10-18T01:06:36.470Z,13.77
2022-10-18T01:09:56.434Z,13.75
2022-10-18T01:13:50.737Z,13.73
2022-10-18T01:22:13.644Z,13.75
2022-10-18T01:26:19.729Z,13.76
2022-10-18T01:30:10.716Z,13.77
2022-10-18T01:33:56.839Z,13.77
2022-10-18T01:37:26.732Z,13.75
2022-10-18T01:40:41.266Z,13.75
2022-10-18T01:44:22.847Z,13.73
2022-10-18T01:47:54.388Z,13.71
2022-10-18T01:51:17.876Z,13.71
2022-10-18T01:54:53.494Z,13.72
2022-10-18T01:59:13.830Z,13.71
2022-10-18T02:03:20.807Z,13.69
2022-10-18T02:06:55.811Z,13.69
2022-10-18T02:10:39.830Z,13.70
2022-10-18T02:14:25.678Z,13.70
2022-10-18T02:17:39.076Z,13.72
2022-10-18T02:21:05.154Z,13.71
2022-10-18T02:24:20.879Z,13.71
2022-10-18T02:27:35.957Z,13.67
2022-10-18T02:31:10.024Z,13.66
2022-10-18T02:34:40.822Z,13.63
2022-10-18T02:37:52.519Z,13.62
2022-10-18T02:41:06.920Z,13.63
2022-10-18T02:44:18.932Z,13.59
2022-10-18T02:47:31.451Z,13.57
2022-10-18T02:50:52.911Z,13.57
2022-10-18T02:54:07.716Z,13.55
2022-10-18T02:57:17.958Z,13.55
2022-10-18T03:00:34.003Z,13.58
2022-10-18T03:03:46.675Z,13.56
2022-10-18T03:07:00.796Z,13.52
2022-10-18T03:10:19.077Z,13.48
2022-10-18T03:14:07.450Z,13.42
2022-10-18T03:17:35.885Z,13.40
2022-10-18T03:20:50.066Z,13.37
2022-10-18T03:24:05.986Z,13.35
2022-10-18T03:27:20.499Z,13.36
2022-10-18T03:30:30.274Z,13.32
2022-10-18T03:33:41.115Z,13.34
2022-10-18T03:37:01.012Z,13.34
2022-10-18T03:40:16.751Z,13.37
2022-10-18T03:43:30.179Z,13.36
2022-10-18T03:46:55.568Z,13.39
2022-10-18T03:50:13.205Z,13.38
2022-10-18T03:53:29.734Z,13.40
2022-10-18T03:56:43.736Z,13.40
2022-10-18T03:59:57.263Z,13.40
2022-10-18T04:03:15.306Z,13.36
2022-10-18T04:06:33.021Z,13.40
2022-10-18T04:10:36.773Z,13.34
2022-10-18T04:13:47.861Z,13.35
2022-10-18T04:17:04.654Z,13.34
2022-10-18T04:20:22.461Z,13.29
2022-10-18T04:23:38.995Z,13.26
2022-10-18T04:26:50.593Z,13.23
2022-10-18T04:30:07.432Z,13.22
2022-10-18T04:33:21.045Z,13.17
2022-10-18T04:36:37.711Z,13.16
2022-10-18T04:39:53.438Z,13.17
2022-10-18T04:43:03.409Z,13.13
2022-10-18T04:46:18.352Z,13.13
2022-10-18T04:49:34.783Z,13.12
2022-10-18T04:52:42.454Z,13.09
2022-10-18T04:55:52.001Z,13.09
2022-10-18T04:59:04.871Z,13.08
2022-10-18T05:02:16.322Z,13.09
2022-10-18T05:05:43.484Z,13.11
2022-10-18T05:08:59.326Z,13.11
2022-10-18T05:12:05.848Z,13.09
2022-10-18T05:15:18.701Z,13.11
2022-10-18T05:18:26.200Z,13.09
2022-10-18T05:21:41.217Z,13.05
2022-10-18T05:24:51.573Z,13.05
2022-10-18T05:28:03.408Z,13.06
2022-10-18T05:31:17.717Z,13.07
2022-10-18T05:34:22.648Z,13.08
2022-10-18T05:37:31.909Z,13.09
2022-10-18T05:40:39.956Z,13.08
2022-10-18T05:43:44.620Z,13.08
2022-10-18T05:46:55.202Z,13.10
2022-10-18T05:50:00.045Z,13.09
2022-10-18T05:53:12.814Z,13.06
2022-10-18T05:56:36.080Z,13.03
2022-10-18T05:59:47.260Z,13.00
2022-10-18T06:02:59.386Z,13.02
2022-10-18T06:06:27.245Z,13.04
2022-10-18T06:09:35.997Z,13.06
2022-10-18T06:12:43.675Z,13.03
2022-10-18T06:16:03.329Z,13.02
2022-10-18T06:19:07.763Z,13.00
2022-10-18T06:22:12.965Z,12.96
2022-10-18T06:25:17.759Z,12.96
2022-10-18T06:28:34.097Z,12.93
2022-10-18T06:32:04.520Z,12.94
2022-10-18T06:35:09.797Z,12.94
2022-10-18T06:38:14.947Z,12.96
2022-10-18T06:41:19.781Z,12.95
2022-10-18T06:44:24.538Z,12.92
2022-10-18T06:47:28.693Z,12.92
2022-10-18T06:50:33.118Z,12.88
2022-10-18T06:53:44.177Z,12.84
2022-10-18T06:56:58.359Z,12.80
2022-10-18T07:00:10.645Z,12.84
2022-10-18T07:03:15.072Z,12.86
2022-10-18T07:06:21.100Z,12.81
2022-10-18T07:09:25.607Z,12.81
2022-10-18T07:12:31.272Z,12.81
2022-10-18T07:15:38.632Z,12.84
2022-10-18T07:18:46.888Z,12.84
2022-10-18T07:21:51.380Z,12.88
2022-10-18T07:24:55.597Z,12.93
2022-10-18T07:27:59.924Z,12.94
2022-10-18T07:31:08.846Z,12.93
2022-10-18T07:34:14.289Z,12.87
2022-10-18T07:37:18.782Z,12.88
2022-10-18T07:40:23.289Z,12.90
2022-10-18T07:43:28.638Z,12.87
2022-10-18T07:46:33.263Z,12.81
2022-10-18T07:49:37.656Z,12.82
2022-10-18T07:52:42.090Z,12.89
2022-10-18T07:55:46.674Z,12.89
2022-10-18T07:58:53.577Z,12.91
2022-10-18T08:01:57.959Z,12.87
2022-10-18T08:05:01.818Z,12.86
2022-10-18T08:08:08.117Z,12.83
2022-10-18T08:11:16.779Z,12.84
2022-10-18T08:14:21.097Z,12.80
2022-10-18T08:17:25.463Z,12.82
2022-10-18T08:20:32.010Z,12.79
2022-10-18T08:23:37.472Z,12.80
2022-10-18T08:26:41.939Z,12.78
2022-10-18T08:29:46.195Z,12.77
2022-10-18T08:32:50.625Z,12.76
2022-10-18T08:35:57.351Z,12.82
2022-10-18T08:39:02.982Z,12.77
2022-10-18T08:42:18.310Z,12.79
2022-10-18T08:45:37.731Z,12.82
2022-10-18T08:48:52.997Z,12.90
2022-10-18T08:51:58.420Z,12.92
2022-10-18T08:55:29.196Z,12.98
2022-10-18T08:58:33.893Z,13.09
2022-10-18T09:01:56.355Z,13.15
2022-10-18T09:05:27.391Z,13.17
2022-10-18T09:09:17.940Z,13.25
2022-10-18T09:13:02.308Z,13.26
2022-10-18T09:16:36.657Z,13.23
2022-10-18T09:20:15.295Z,13.21
2022-10-18T09:23:27.683Z,13.28
2022-10-18T09:26:47.630Z,13.14
2022-10-18T09:30:13.585Z,13.18
2022-10-18T09:33:32.344Z,13.19
2022-10-18T09:36:38.971Z,13.28
2022-10-18T09:39:44.878Z,13.39
2022-10-18T09:42:55.753Z,13.41
2022-10-18T09:46:00.711Z,13.40
2022-10-18T09:49:22.035Z,13.54
2022-10-18T09:52:52.092Z,13.51
2022-10-18T09:56:07.497Z,13.44
2022-10-18T09:59:48.428Z,13.48
2022-10-18T10:02:53.351Z,13.50
2022-10-18T10:06:17.979Z,13.62
2022-10-18T10:09:36.470Z,13.60
2022-10-18T10:12:44.562Z,13.54
2022-10-18T10:16:10.024Z,13.51
2022-10-18T10:19:29.370Z,13.51
2022-10-18T10:22:49.254Z,13.82
2022-10-18T10:26:23.585Z,14.06
2022-10-18T10:29:48.848Z,14.19
2022-10-18T10:32:57.680Z,14.38
2022-10-18T10:36:11.527Z,14.45
2022-10-18T10:39:22.675Z,14.34
2022-10-18T10:42:29.091Z,14.26
2022-10-18T10:45:41.966Z,14.26
2022-10-18T10:49:21.620Z,14.34
2022-10-18T10:52:31.026Z,14.28
2022-10-18T10:55:40.705Z,14.33
2022-10-18T10:58:45.771Z,14.44
2022-10-18T11:02:26.123Z,14.56
2022-10-18T11:05:33.556Z,14.71
2022-10-18T11:08:43.745Z,14.80
2022-10-18T11:12:18.464Z,14.85
2022-10-18T11:15:48.386Z,14.74
2022-10-18T11:18:57.669Z,14.58
2022-10-18T11:22:09.577Z,14.47
2022-10-18T11:25:16.778Z,14.39
2022-10-18T11:28:38.578Z,14.43
2022-10-18T11:32:17.798Z,14.44
2022-10-18T11:35:59.110Z,14.50
2022-10-18T11:39:29.842Z,14.66
2022-10-18T11:42:56.725Z,14.79
2022-10-18T11:46:30.935Z,14.82
2022-10-18T11:49:51.267Z,14.71
2022-10-18T11:53:30.946Z,14.58
2022-10-18T11:56:59.675Z,14.59
2022-10-18T12:00:39.627Z,14.73
2022-10-18T12:04:26.596Z,14.77
2022-10-18T12:07:41.779Z,14.71
2022-10-18T12:11:07.977Z,14.72
2022-10-18T12:14:28.093Z,14.64
2022-10-18T12:17:50.054Z,14.57
2022-10-18T12:21:02.752Z,14.49
2022-10-18T12:24:18.554Z,14.41
2022-10-18T12:27:39.604Z,14.34
2022-10-18T12:31:31.440Z,14.23
2022-10-18T12:34:55.400Z,14.20
2022-10-18T12:38:23.407Z,14.31
2022-10-18T12:41:38.190Z,14.45
2022-10-18T12:44:43.221Z,14.64
2022-10-18T12:47:47.300Z,14.74
2022-10-18T12:51:19.862Z,14.74
2022-10-18T12:54:29.556Z,14.73
2022-10-18T12:57:52.199Z,14.73
2022-10-18T13:01:09.170Z,14.70
2022-10-18T13:04:39.789Z,14.69
2022-10-18T13:07:57.043Z,14.70
2022-10-18T13:11:39.755Z,14.64
2022-10-18T13:15:25.333Z,14.65
2022-10-18T13:20:02.904Z,14.58
2022-10-18T13:23:53.809Z,14.56
2022-10-18T13:27:42.809Z,14.58
2022-10-18T13:31:25.305Z,14.56
2022-10-18T13:34:42.984Z,14.49
2022-10-18T13:38:34.918Z,14.45
2022-10-18T13:41:53.640Z,14.52
2022-10-18T13:45:35.953Z,14.55
2022-10-18T13:48:42.832Z,14.53
2022-10-18T13:52:27.707Z,14.51
2022-10-18T13:56:13.562Z,14.45
2022-10-18T13:59:59.231Z,14.40
2022-10-18T14:03:56.393Z,14.34
2022-10-18T14:07:06.746Z,14.32
2022-10-18T14:10:43.795Z,14.28
2022-10-18T14:14:16.370Z,14.25
2022-10-18T14:17:56.998Z,14.25
2022-10-18T14:21:13.698Z,14.24
2022-10-18T14:24:29.065Z,14.19
2022-10-18T14:27:37.078Z,14.10
2022-10-18T14:31:06.444Z,14.03
2022-10-18T14:34:18.440Z,13.98
2022-10-18T14:37:37.473Z,13.95
2022-10-18T14:40:46.548Z,13.91
2022-10-18T14:44:09.857Z,13.90
2022-10-18T14:47:22.357Z,13.89
